createdAt,value
2022-10-17T00:01:00.344Z,15.14
2022-10-17T00:03:30.739Z,15.12
2022-10-17T00:06:05.402Z,15.11
2022-10-17T00:08:36.675Z,15.10
2022-10-17T00:11:06.855Z,15.06
2022-10-17T00:13:37.408Z,15.02
2022-10-17T00:16:09.236Z,14.99
2022-10-17T00:18:39.971Z,14.96
2022-10-17T00:21:17.904Z,14.95
2022-10-17T00:23:48.700Z,14.95
2022-10-17T00:26:19.569Z,14.92
2022-10-17T00:28:51.715Z,14.89
2022-10-17T00:31:24.483Z,14.88
2022-10-17T00:33:55.119Z,14.87
2022-10-17T00:36:26.981Z,14.85
2022-10-17T00:38:59.531Z,14.83
2022-10-17T00:41:33.187Z,14.82
2022-10-17T00:44:05.861Z,14.82
2022-10-17T00:46:40.528Z,14.83
2022-10-17T00:49:13.862Z,14.84
2022-10-17T00:51:47.889Z,14.84
2022-10-17T00:54:22.543Z,14.83
2022-10-17T00:56:54.313Z,14.82
2022-10-17T00:59:26.228Z,14.81
2022-10-17T01:02:04.684Z,14.80
2022-10-17T01:04:36.585Z,14.79
2022-10-17T01:07:07.041Z,14.77
2022-10-17T01:09:38.175Z,14.75
2022-10-17T01:12:18.953Z,14.74
2022-10-17T01:15:00.967Z,14.74
2022-10-17T01:17:41.165Z,14.72
2022-10-17T01:27:49.998Z,14.57
2022-10-17T01:30:57.546Z,14.52
2022-10-17T01:33:48.310Z,14.52
2022-10-17T01:36:31.870Z,14.50
2022-10-17T01:39:10.699Z,14.49
2022-10-17T01:41:47.997Z,14.46
2022-10-17T01:44:24.564Z,14.42
2022-10-17T01:47:00.386Z,14.38
2022-10-17T01:49:33.534Z,14.37
2022-10-17T01:52:09.257Z,14.34
2022-10-17T01:54:46.714Z,14.32
2022-10-17T01:57:23.145Z,14.33
2022-10-17T01:59:56.596Z,14.35
2022-10-17T02:02:28.092Z,14.35
2022-10-17T02:07:29.515Z,14.33
2022-10-17T02:10:00.414Z,14.30
2022-10-17T02:12:46.492Z,14.26
2022-10-17T02:15:37.204Z,14.20
2022-10-17T02:18:22.179Z,14.15
2022-10-17T02:21:19.735Z,14.11
2022-10-17T02:23:56.815Z,14.08
2022-10-17T02:26:32.369Z,14.07
2022-10-17T02:29:11.117Z,14.06
2022-10-17T02:32:00.116Z,14.05
2022-10-17T02:34:36.048Z,14.03
2022-10-17T02:37:09.521Z,14.03
2022-10-17T02:39:41.401Z,14.02
2022-10-17T02:42:14.305Z,14.02
2022-10-17T02:44:47.395Z,14.03
2022-10-17T02:47:24.134Z,14.03
2022-10-17T02:49:56.782Z,14.03
2022-10-17T02:52:34.205Z,14.02
2022-10-17T02:55:10.736Z,14.02
2022-10-17T02:57:46.335Z,14.00
2022-10-17T03:00:20.930Z,14.01
2022-10-17T03:02:53.587Z,14.02
2022-10-17T03:05:26.420Z,14.03
2022-10-17T03:07:57.862Z,14.03
2022-10-17T03:10:28.429Z,14.02
2022-10-17T03:12:58.981Z,14.01
2022-10-17T03:15:29.659Z,13.98
2022-10-17T03:18:00.234Z,13.94
2022-10-17T03:20:30.827Z,13.91
2022-10-17T03:23:07.138Z,13.88
2022-10-17T03:25:37.532Z,13.86
2022-10-17T03:28:08.817Z,13.85
2022-10-17T03:30:40.964Z,13.82
2022-10-17T03:33:12.425Z,13.78
2022-10-17T03:35:43.052Z,13.77
2022-10-17T03:38:13.917Z,13.72
2022-10-17T03:40:45.368Z,13.70
2022-10-17T03:43:16.100Z,13.68
2022-10-17T03:45:46.657Z,13.67
2022-10-17T03:48:17.216Z,13.65
2022-10-17T03:50:47.853Z,13.65
2022-10-17T03:53:18.429Z,13.64
2022-10-17T03:55:49.108Z,13.62
2022-10-17T03:58:19.800Z,13.60
2022-10-17T04:00:50.947Z,13.57
2022-10-17T04:03:21.813Z,13.55
2022-10-17T04:05:52.374Z,13.52
2022-10-17T04:08:23.015Z,13.50
2022-10-17T04:11:09.988Z,13.48
2022-10-17T04:13:41.680Z,13.51
2022-10-17T04:16:16.561Z,13.50
2022-10-17T04:19:16.589Z,13.47
2022-10-17T04:21:49.594Z,13.46
2022-10-17T04:24:19.588Z,13.46
2022-10-17T04:27:26.417Z,13.44
2022-10-17T04:29:58.372Z,13.41
2022-10-17T04:32:29.335Z,13.38
2022-10-17T04:35:08.556Z,13.36
2022-10-17T04:37:39.161Z,13.35
2022-10-17T04:40:15.235Z,13.34
2022-10-17T04:42:45.870Z,13.34
2022-10-17T04:45:20.013Z,13.35
2022-10-17T04:47:51.182Z,13.36
2022-10-17T04:50:21.964Z,13.37
2022-10-17T04:53:08.723Z,13.38
2022-10-17T04:55:50.351Z,13.40
2022-10-17T04:58:21.756Z,13.44
2022-10-17T05:00:53.253Z,13.49
2022-10-17T05:03:26.919Z,13.54
2022-10-17T05:05:57.545Z,13.57
2022-10-17T05:08:29.207Z,13.58
2022-10-17T05:11:00.967Z,13.56
2022-10-17T05:13:32.440Z,13.53
2022-10-17T05:16:04.038Z,13.48
2022-10-17T05:18:35.571Z,13.43
2022-10-17T05:21:07.859Z,13.42
2022-10-17T05:23:38.809Z,13.40
2022-10-17T05:26:11.278Z,13.37
2022-10-17T05:28:41.774Z,13.35
2022-10-17T05:31:18.350Z,13.34
2022-10-17T05:33:49.559Z,13.35
2022-10-17T05:36:22.699Z,13.32
2022-10-17T05:38:54.558Z,13.30
2022-10-17T05:41:59.531Z,13.29
2022-10-17T05:44:30.871Z,13.31
2022-10-17T05:47:03.134Z,13.31
2022-10-17T05:49:44.973Z,13.30
2022-10-17T05:52:21.143Z,13.30
2022-10-17T05:55:00.963Z,13.32
2022-10-17T05:57:31.876Z,13.34
2022-10-17T06:00:02.690Z,13.38
2022-10-17T06:02:46.013Z,13.41
2022-10-17T06:05:18.452Z,13.44
2022-10-17T06:07:58.249Z,13.47
2022-10-17T06:10:32.732Z,13.49
2022-10-17T06:13:03.820Z,13.50
2022-10-17T06:15:34.288Z,13.53
2022-10-17T06:18:09.057Z,13.56
2022-10-17T06:20:43.834Z,13.60
2022-10-17T06:23:17.566Z,13.64
2022-10-17T06:25:58.731Z,13.67
2022-10-17T06:28:29.262Z,13.69
2022-10-17T06:31:01.103Z,13.73
2022-10-17T06:33:31.913Z,13.77
2022-10-17T06:36:02.779Z,13.80
2022-10-17T06:38:35.196Z,13.84
2022-10-17T06:41:16.185Z,13.87
2022-10-17T06:43:48.226Z,13.91
2022-10-17T06:46:49.285Z,13.98
2022-10-17T06:49:21.594Z,14.06
2022-10-17T06:52:01.062Z,14.15
2022-10-17T06:54:43.962Z,14.22
2022-10-17T06:57:38.394Z,14.29
2022-10-17T07:00:28.852Z,14.37
2022-10-17T07:03:01.057Z,14.44
2022-10-17T07:05:39.356Z,14.49
2022-10-17T07:08:31.208Z,14.52
2022-10-17T07:11:23.828Z,14.52
2022-10-17T07:14:13.797Z,14.50
2022-10-17T07:16:48.228Z,14.44
2022-10-17T07:19:57.973Z,14.37
2022-10-17T07:22:34.134Z,14.28
2022-10-17T07:25:08.917Z,14.24
2022-10-17T07:28:04.273Z,14.22
2022-10-17T07:31:14.132Z,14.19
2022-10-17T07:33:57.833Z,14.18
2022-10-17T07:36:29.135Z,14.19
2022-10-17T07:39:02.742Z,14.19
2022-10-17T07:41:43.924Z,14.21
2022-10-17T07:44:36.680Z,14.25
2022-10-17T07:47:23.981Z,14.26
2022-10-17T07:50:37.575Z,14.32
2022-10-17T07:53:30.002Z,14.37
2022-10-17T07:56:07.061Z,14.43
2022-10-17T07:58:46.123Z,14.48
2022-10-17T08:01:46.418Z,14.53
2022-10-17T08:04:25.281Z,14.59
2022-10-17T08:07:18.566Z,14.65
2022-10-17T08:09:53.477Z,14.69
2022-10-17T08:12:52.166Z,14.73
2022-10-17T08:15:54.919Z,14.77
2022-10-17T08:21:54.370Z,14.89
2022-10-17T08:24:37.721Z,14.98
2022-10-17T08:27:54.984Z,15.08
2022-10-17T08:31:48.312Z,15.22
2022-10-17T08:34:27.250Z,15.40
2022-10-17T08:37:01.390Z,15.53
2022-10-17T08:39:33.590Z,15.66
2022-10-17T08:42:27.990Z,15.88
2022-10-17T08:45:25.705Z,16.12
2022-10-17T08:48:02.300Z,16.37
2022-10-17T08:50:43.659Z,16.58
2022-10-17T08:53:16.947Z,16.80
2022-10-17T08:55:57.574Z,16.99
2022-10-17T08:58:36.774Z,17.18
2022-10-17T09:01:51.654Z,17.37
2022-10-17T09:04:47.628Z,17.58
2022-10-17T09:07:28.524Z,17.76
2022-10-17T09:10:26.988Z,17.89
2022-10-17T09:13:16.221Z,18.05
2022-10-17T09:16:07.777Z,18.17
2022-10-17T09:18:42.295Z,18.33
2022-10-17T09:21:22.329Z,18.46
2022-10-17T09:24:09.206Z,18.60
2022-10-17T09:26:42.410Z,18.76
2022-10-17T09:29:20.954Z,18.89
2022-10-17T09:32:13.991Z,19.01
2022-10-17T09:34:45.204Z,19.13
2022-10-17T09:37:16.185Z,19.20
2022-10-17T09:39:47.528Z,19.25
2022-10-17T09:42:23.179Z,19.30
2022-10-17T09:44:58.606Z,19.36
2022-10-17T09:47:35.954Z,19.39
2022-10-17T09:50:18.823Z,19.41
2022-10-17T09:52:50.897Z,19.43
2022-10-17T09:55:28.530Z,19.47
2022-10-17T09:58:01.640Z,19.50
2022-10-17T10:04:21.311Z,19.59
2022-10-17T10:07:09.674Z,19.63
2022-10-17T10:09:41.126Z,19.67
2022-10-17T10:12:24.042Z,19.69
2022-10-17T10:15:37.961Z,19.73
2022-10-17T10:18:31.917Z,19.81
2022-10-17T10:21:13.031Z,19.89
2022-10-17T10:23:45.350Z,19.95
2022-10-17T10:26:26.779Z,20.02
2022-10-17T10:29:02.107Z,20.07
2022-10-17T10:31:52.186Z,20.10
2022-10-17T10:34:34.583Z,20.15
2022-10-17T10:37:17.378Z,20.20
2022-10-17T10:39:54.667Z,20.25
2022-10-17T10:42:30.185Z,20.27
2022-10-17T10:45:35.898Z,20.27
2022-10-17T10:48:25.387Z,20.28
2022-10-17T10:51:01.386Z,20.32
2022-10-17T10:53:39.818Z,20.36
2022-10-17T10:56:20.512Z,20.41
2022-10-17T10:59:00.395Z,20.52
2022-10-17T11:01:45.070Z,20.63
2022-10-17T11:04:34.383Z,20.73
2022-10-17T11:07:16.045Z,20.82
2022-10-17T11:09:59.763Z,20.96
2022-10-17T11:12:51.910Z,21.05
2022-10-17T11:16:02.425Z,21.10
2022-10-17T11:18:40.912Z,21.16
2022-10-17T11:21:17.502Z,21.20
2022-10-17T11:23:55.319Z,21.24
2022-10-17T11:26:31.801Z,21.29
2022-10-17T11:29:06.746Z,21.38
2022-10-17T11:31:41.491Z,21.48
2022-10-17T11:34:20.166Z,21.56
2022-10-17T11:37:05.131Z,21.63
2022-10-17T11:39:48.589Z,21.70
2022-10-17T11:42:24.799Z,21.76
2022-10-17T11:45:01.464Z,21.83
2022-10-17T11:47:43.248Z,21.91
2022-10-17T11:53:26.401Z,22.09
2022-10-17T11:55:59.520Z,22.15
2022-10-17T11:58:51.707Z,22.21
2022-10-17T12:01:33.935Z,22.33
2022-10-17T12:04:31.367Z,22.48
2022-10-17T12:07:15.851Z,22.65
2022-10-17T12:09:55.774Z,22.91
2022-10-17T12:12:40.975Z,23.22
2022-10-17T12:15:36.836Z,23.54
2022-10-17T12:18:30.164Z,23.90
2022-10-17T12:21:02.081Z,24.14
2022-10-17T12:23:36.410Z,24.40
2022-10-17T12:26:28.453Z,24.63
2022-10-17T12:29:00.414Z,24.87
2022-10-17T12:31:34.058Z,25.07
2022-10-17T12:34:06.520Z,25.26
2022-10-17T12:36:45.941Z,25.41
2022-10-17T12:39:56.016Z,25.58
2022-10-17T12:42:50.977Z,25.75
2022-10-17T12:45:58.291Z,26.00
2022-10-17T12:49:04.278Z,26.32
2022-10-17T12:52:15.819Z,26.55
2022-10-17T12:55:00.339Z,26.69
2022-10-17T12:57:48.426Z,26.84
2022-10-17T13:00:23.943Z,26.88
2022-10-17T13:02:57.342Z,26.97
2022-10-17T13:05:33.914Z,26.99
2022-10-17T13:08:08.591Z,27.11
2022-10-17T13:10:43.203Z,27.23
2022-10-17T13:13:21.099Z,27.34
2022-10-17T13:15:53.535Z,27.31
2022-10-17T13:18:26.931Z,27.29
2022-10-17T13:21:02.906Z,27.35
2022-10-17T13:23:35.987Z,27.41
2022-10-17T13:26:16.581Z,27.50
2022-10-17T13:28:45.535Z,27.55
2022-10-17T13:31:35.257Z,27.66
2022-10-17T13:34:07.557Z,27.78
2022-10-17T13:36:38.227Z,27.84
2022-10-17T13:39:17.188Z,27.85
2022-10-17T13:41:50.356Z,27.87
2022-10-17T13:44:20.656Z,27.92
2022-10-17T13:46:51.991Z,28.00
2022-10-17T13:49:30.095Z,28.13
2022-10-17T13:52:02.596Z,28.20
2022-10-17T13:54:40.092Z,28.29
2022-10-17T13:57:21.421Z,28.32
2022-10-17T13:59:55.436Z,28.33
2022-10-17T14:02:28.188Z,28.39
2022-10-17T14:05:20.136Z,28.39
2022-10-17T14:08:13.352Z,28.34
2022-10-17T14:10:46.529Z,28.27
2022-10-17T14:13:24.454Z,28.35
2022-10-17T14:15:56.190Z,28.34
2022-10-17T14:18:38.332Z,28.22
2022-10-17T14:24:27.383Z,27.98
2022-10-17T14:27:00.114Z,27.83
2022-10-17T14:29:33.610Z,27.69
2022-10-17T14:32:08.558Z,27.67
2022-10-17T14:34:41.616Z,27.56
2022-10-17T14:37:19.625Z,27.28
2022-10-17T14:39:55.136Z,26.88
2022-10-17T14:42:26.259Z,26.52
2022-10-17T14:45:04.129Z,26.21
2022-10-17T14:47:50.519Z,25.83
2022-10-17T14:50:28.354Z,25.52
2022-10-17T14:53:07.457Z,25.20
2022-10-17T14:55:39.843Z,24.92
2022-10-17T14:58:25.315Z,24.62
2022-10-17T15:00:55.802Z,24.37
2022-10-17T15:03:26.657Z,24.21
2022-10-17T15:05:56.411Z,24.04
2022-10-17T15:08:26.830Z,23.92
2022-10-17T15:10:57.403Z,23.80
2022-10-17T15:13:30.273Z,23.70
2022-10-17T15:16:01.893Z,23.61
2022-10-17T15:18:32.331Z,23.48
2022-10-17T15:21:05.417Z,23.33
2022-10-17T15:23:48.461Z,23.15
2022-10-17T15:26:21.777Z,23.00
2022-10-17T15:28:53.633Z,22.85
2022-10-17T15:31:26.287Z,22.72
2022-10-17T15:33:56.986Z,22.60
2022-10-17T15:36:29.955Z,22.47
2022-10-17T15:39:02.622Z,22.33
2022-10-17T15:41:34.349Z,22.19
2022-10-17T15:44:04.903Z,22.06
2022-10-17T15:46:37.456Z,21.97
2022-10-17T15:49:11.174Z,21.87
2022-10-17T15:51:43.405Z,21.74
2022-10-17T15:54:14.184Z,21.63
2022-10-17T15:56:48.138Z,21.51
2022-10-17T15:59:23.488Z,21.39
2022-10-17T16:01:54.263Z,21.25
2022-10-17T16:04:27.250Z,21.10
2022-10-17T16:06:57.863Z,20.94
2022-10-17T16:09:30.126Z,20.75
2022-10-17T16:12:01.407Z,20.56
2022-10-17T16:14:32.591Z,20.39
2022-10-17T16:17:01.653Z,20.22
2022-10-17T16:19:32.461Z,20.07
2022-10-17T16:22:06.155Z,19.92
2022-10-17T16:24:36.751Z,19.77
2022-10-17T16:27:12.440Z,19.64
2022-10-17T16:29:43.076Z,19.49
2022-10-17T16:32:13.747Z,19.34
2022-10-17T16:34:44.319Z,19.20
2022-10-17T16:37:14.878Z,19.08
2022-10-17T16:39:49.183Z,18.96
2022-10-17T16:42:20.019Z,18.86
2022-10-17T16:44:51.885Z,18.77
2022-10-17T16:47:22.591Z,18.68
2022-10-17T16:49:53.423Z,18.58
2022-10-17T16:52:24.255Z,18.48
2022-10-17T16:54:54.736Z,18.39
2022-10-17T16:57:25.332Z,18.33
2022-10-17T16:59:56.490Z,18.25
2022-10-17T17:02:27.188Z,18.18
2022-10-17T17:05:04.014Z,18.09
2022-10-17T17:07:34.506Z,18.01
2022-10-17T17:10:05.236Z,17.94
2022-10-17T17:12:37.516Z,17.91
2022-10-17T17:15:08.724Z,17.87
2022-10-17T17:17:49.731Z,17.84
2022-10-17T17:20:27.074Z,17.79
2022-10-17T17:22:57.619Z,17.74
2022-10-17T17:25:28.089Z,17.69
2022-10-17T17:27:58.678Z,17.66
2022-10-17T17:30:29.891Z,17.62
2022-10-17T17:33:00.043Z,17.57
2022-10-17T17:35:31.859Z,17.53
2022-10-17T17:38:04.867Z,17.47
2022-10-17T17:40:35.468Z,17.42
2022-10-17T17:43:05.965Z,17.38
2022-10-17T17:45:58.907Z,17.36
2022-10-17T17:48:29.590Z,17.33
2022-10-17T17:51:03.828Z,17.31
2022-10-17T17:53:34.756Z,17.30
2022-10-17T17:56:07.203Z,17.29
2022-10-17T17:58:38.522Z,17.27
2022-10-17T18:01:14.303Z,17.26
2022-10-17T18:03:46.111Z,17.25
2022-10-17T18:06:17.351Z,17.21
2022-10-17T18:08:47.058Z,17.18
2022-10-17T18:11:21.147Z,17.14
2022-10-17T18:13:56.961Z,17.10
2022-10-17T18:16:28.279Z,17.07
2022-10-17T18:18:59.500Z,17.05
2022-10-17T18:21:33.976Z,17.03
2022-10-17T18:24:05.737Z,16.99
2022-10-17T18:26:36.712Z,16.96
2022-10-17T18:29:07.600Z,16.94
2022-10-17T18:31:38.235Z,16.93
2022-10-17T18:34:09.077Z,16.92
2022-10-17T18:36:39.917Z,16.92
2022-10-17T18:39:10.911Z,16.91
2022-10-17T18:41:41.649Z,16.89
2022-10-17T18:44:13.016Z,16.87
2022-10-17T18:49:19.419Z,16.80
2022-10-17T18:51:56.963Z,16.78
2022-10-17T18:54:27.485Z,16.75
2022-10-17T18:56:58.317Z,16.75
2022-10-17T18:59:29.517Z,16.74
2022-10-17T19:02:07.214Z,16.74
2022-10-17T19:04:38.906Z,16.73
2022-10-17T19:07:09.777Z,16.72
2022-10-17T19:09:40.475Z,16.70
2022-10-17T19:12:11.885Z,16.69
2022-10-17T19:14:42.733Z,16.69
2022-10-17T19:17:13.403Z,16.68
2022-10-17T19:19:44.385Z,16.68
2022-10-17T19:22:15.405Z,16.68
2022-10-17T19:24:48.924Z,16.68
2022-10-17T19:27:20.863Z,16.69
2022-10-17T19:29:51.604Z,16.68
2022-10-17T19:32:23.076Z,16.69
2022-10-17T19:34:54.101Z,16.69
2022-10-17T19:37:25.583Z,16.69
2022-10-17T19:39:57.835Z,16.68
2022-10-17T19:42:30.973Z,16.67
2022-10-17T19:45:06.042Z,16.64
2022-10-17T19:47:39.795Z,16.64
2022-10-17T19:50:11.176Z,16.63
2022-10-17T19:52:40.194Z,16.62
2022-10-17T19:55:11.329Z,16.60
2022-10-17T19:57:41.867Z,16.56
2022-10-17T20:00:14.411Z,16.54
2022-10-17T20:02:47.152Z,16.52
2022-10-17T20:05:19.068Z,16.49
2022-10-17T20:07:50.511Z,16.48
2022-10-17T20:10:21.265Z,16.47
2022-10-17T20:12:51.931Z,16.46
2022-10-17T20:15:22.467Z,16.43
2022-10-17T20:17:53.164Z,16.42
2022-10-17T20:20:23.734Z,16.40
2022-10-17T20:22:54.554Z,16.39
2022-10-17T20:25:25.504Z,16.36
2022-10-17T20:27:55.998Z,16.34
2022-10-17T20:30:27.573Z,16.32
2022-10-17T20:32:58.112Z,16.30
2022-10-17T20:35:28.689Z,16.30
2022-10-17T20:37:59.861Z,16.27
2022-10-17T20:40:36.122Z,16.28
2022-10-17T20:43:08.326Z,16.27
2022-10-17T20:45:50.984Z,16.27
2022-10-17T20:48:22.734Z,16.27
2022-10-17T20:50:54.023Z,16.25
2022-10-17T20:53:36.478Z,16.24
2022-10-17T20:56:13.508Z,16.22
2022-10-17T20:58:43.963Z,16.20
2022-10-17T21:01:14.545Z,16.19
2022-10-17T21:03:46.683Z,16.17
2022-10-17T21:06:16.218Z,16.16
2022-10-17T21:08:47.693Z,16.15
2022-10-17T21:11:19.648Z,16.13
2022-10-17T21:13:55.530Z,16.12
2022-10-17T21:16:26.880Z,16.10
2022-10-17T21:18:56.967Z,16.09
2022-10-17T21:21:29.662Z,16.09
2022-10-17T21:24:03.125Z,16.07
2022-10-17T21:26:37.473Z,16.06
2022-10-17T21:29:09.197Z,16.06
2022-10-17T21:31:41.646Z,16.04
2022-10-17T21:34:15.457Z,16.03
2022-10-17T21:36:46.647Z,16.01
2022-10-17T21:39:19.257Z,15.99
2022-10-17T21:41:49.988Z,15.99
2022-10-17T21:44:22.972Z,15.97
2022-10-17T21:46:54.635Z,15.95
2022-10-17T21:49:26.527Z,15.94
2022-10-17T21:51:57.246Z,15.93
2022-10-17T21:54:27.674Z,15.90
2022-10-17T21:56:58.037Z,15.89
2022-10-17T21:59:28.782Z,15.87
2022-10-17T22:01:59.331Z,15.87
2022-10-17T22:04:29.879Z,15.88
2022-10-17T22:07:00.367Z,15.88
2022-10-17T22:09:30.895Z,15.88
2022-10-17T22:12:01.385Z,15.88
2022-10-17T22:14:31.857Z,15.89
2022-10-17T22:17:02.529Z,15.89
2022-10-17T22:19:33.175Z,15.89
2022-10-17T22:22:03.483Z,15.90
2022-10-17T22:24:34.026Z,15.90
2022-10-17T22:27:14.272Z,15.89
2022-10-17T22:29:44.639Z,15.88
2022-10-17T22:32:19.969Z,15.87
2022-10-17T22:34:53.327Z,15.86
2022-10-17T22:37:24.218Z,15.84
2022-10-17T22:39:54.719Z,15.81
2022-10-17T22:42:25.290Z,15.80
2022-10-17T22:44:55.659Z,15.78
2022-10-17T22:47:26.073Z,15.77
2022-10-17T22:49:56.536Z,15.75
2022-10-17T22:52:27.217Z,15.73
2022-10-17T22:54:57.745Z,15.71
2022-10-17T22:57:28.318Z,15.70
2022-10-17T22:59:58.821Z,15.66
2022-10-17T23:02:29.755Z,15.63
2022-10-17T23:05:01.016Z,15.61
2022-10-17T23:07:31.788Z,15.59
2022-10-17T23:10:02.558Z,15.60
2022-10-17T23:12:33.521Z,15.60
2022-10-17T23:15:04.242Z,15.60
2022-10-17T23:17:34.652Z,15.61
2022-10-17T23:20:05.567Z,15.63
2022-10-17T23:22:35.983Z,15.64
2022-10-17T23:25:07.331Z,15.64
2022-10-17T23:27:37.778Z,15.64
2022-10-17T23:30:11.720Z,15.63
2022-10-17T23:32:42.443Z,15.64
2022-10-17T23:35:13.417Z,15.66
2022-10-17T23:37:43.840Z,15.68
2022-10-17T23:40:15.576Z,15.70
2022-10-17T23:42:46.031Z,15.73
2022-10-17T23:45:16.801Z,15.73
2022-10-17T23:47:47.193Z,15.73
2022-10-17T23:50:17.905Z,15.73
2022-10-17T23:52:48.434Z,15.71
2022-10-17T23:55:19.096Z,15.69
2022-10-17T23:57:49.761Z,15.65
